El Monte (240, 1138) Station Data

Red Flag Warning: No
Fire Weather Zone: 250
SDGE Region: Eastern
Lat/Lon: 32.867/-116.896

Observations

Time Wind Speed/Gust Temp(F) RH Fuel Moist Fuel Temp(F) Dewpt(F) Tmax(F) Tmin(F) Accum Precip 10-min Precip SL Press(mb)
6/27 5:00pm 268 8 G 14 90° 20% - - 44° 143.4° -6.5° - - -
6/27 4:50pm 268 8 G 12 91° 19% - - 42° 143.4° -6.5° - - -
6/27 4:40pm 260 8 G 13 91° 18% - - 42° 143.4° -6.5° - - -
6/27 4:30pm 270 8 G 13 91° 17% - - 39° 143.4° -6.5° - - -
6/27 4:20pm 272 7 G 12 91° 17% - - 40° 143.4° -6.5° - - -
6/27 4:10pm 269 8 G 13 91° 15% - - 37° 143.4° -6.5° - - -
6/27 4:00pm 262 7 G 14 91° 15% - - 37° 143.4° -6.5° - - -
6/27 3:50pm 260 8 G 12 91° 15% - - 38° 143.4° -6.5° - - -
6/27 3:40pm 268 9 G 14 91° 16% - - 38° 143.4° -6.5° - - -
6/27 3:30pm 261 8 G 13 91° 15% - - 37° 143.4° -6.5° - - -
6/27 3:20pm 262 9 G 14 92° 14% - - 36° 143.4° -6.5° - - -
6/27 3:10pm 261 9 G 15 92° 14% - - 36° 143.4° -6.5° - - -
6/27 3:00pm 265 11 G 16 92° 15% - - 37° 143.4° -6.5° - - -
6/27 2:50pm 264 12 G 18 92° 15% - - 38° 143.4° -6.5° - - -
6/27 2:40pm 263 10 G 15 93° 15% - - 39° 143.4° -6.5° - - -
6/27 2:30pm 264 10 G 17 93° 16% - - 40° 143.4° -6.5° - - -
6/27 2:20pm 270 11 G 16 93° 18% - - 42° 143.4° -6.5° - - -
6/27 2:10pm 263 10 G 17 94° 18% - - 44° 143.4° -6.5° - - -
6/27 2:00pm 256 10 G 15 94° 18% - - 44° 143.4° -6.5° - - -
6/27 1:50pm 247 9 G 14 95° 18% - - 45° 143.4° -6.5° - - -
6/27 1:40pm 254 9 G 16 94° 19% - - 45° 143.4° -6.5° - - -
6/27 1:30pm 250 9 G 16 95° 19% - - 46° 143.4° -6.5° - - -
6/27 1:20pm 258 10 G 15 95° 20% - - 47° 143.4° -6.5° - - -
6/27 1:10pm 239 9 G 15 95° 19% - - 46° 143.4° -6.5° - - -
6/27 1:00pm 256 11 G 16 96° 16% - - 43° 143.4° -6.5° - - -
6/27 12:50pm 263 9 G 20 67° 13% - - 15° 143.4° -6.5° - - -
6/27 12:40pm 243 7 G 12 75° 12% - - 18° 143.4° -6.5° - - -
6/27 12:30pm 241 7 G 13 25° 12% - - - 143.4° -6.5° - - -
6/27 12:20pm 244 6 G 11 75° 11% - - 17° 143.4° 11.9° - - -
6/27 12:10pm 232 6 G 12 85° 10% - - 23° 143.4° 13.1° - - -
6/27 12:00pm 264 5 G 11 96° 11% - - 32° 143.4° 60.3° - - -
6/27 11:50am 261 5 G 9 96° 11% - - 33° 143.4° 60.3° - - -
6/27 11:40am 279 4 G 8 95° 11% - - 33° 143.4° 60.3° - - -
6/27 11:30am 252 5 G 9 95° 11% - - 32° 143.4° 60.3° - - -
6/27 11:20am 258 4 G 9 95° 10% - - 30° 143.4° 60.3° - - -
6/27 11:10am 252 5 G 12 95° 12% - - 34° 143.4° 60.3° - - -
6/27 11:00am 270 5 G 9 93° 13% - - 35° 143.4° 60.3° - - -
6/27 10:50am 283 5 G 10 93° 13% - - 35° 143.4° 60.3° - - -
6/27 10:40am 221 4 G 8 93° 11% - - 32° 143.4° 60.3° - - -
6/27 10:30am 259 5 G 10 92° 12% - - 32° 143.4° 60.3° - - -
6/27 10:20am 281 5 G 9 91° 13% - - 33° 143.4° 60.3° - - -
6/27 10:10am 273 5 G 8 90° 13% - - 32° 143.4° 60.3° - - -
6/27 10:00am 270 5 G 9 90° 13% - - 32° 143.4° 60.3° - - -
6/27 9:50am 277 4 G 7 89° 13% - - 31° 143.4° 60.3° - - -
6/27 9:40am 270 2 G 5 90° 16% - - 39° 143.4° 60.3° - - -
6/27 9:30am 282 3 G 5 88° 17% - - 38° 120.1° 60.3° - - -
6/27 9:20am 308 2 G 4 91° 22% - - 47° 120.1° 60.3° - - -
6/27 9:10am 310 2 G 4 98° 28% - - 59° 104° 60.3° - - -
6/27 9:00am 306 2 G 3 98° 32% - - 62° 104° 60.3° - - -
6/27 8:50am 289 1 G 2 91° 27% - - 52° 104° 60.3° - - -
6/27 8:40am 279 1 G 2 80° 23% - - 40° 86.6° 60.3° - - -
6/27 8:30am 276 1 G 2 78° 24% - - 38° 78.8° 60.3° - - -
6/27 8:20am 302 1 G 2 77° 23% - - 36° 77.4° 60.3° - - -
6/27 8:10am 317 1 G 1 76° 24% - - 36° 76.6° 60.3° - - -
6/27 8:00am 313 0 G 2 75° 26% - - 38° 75.9° 60.3° - - -
6/27 7:50am 168 0 G 2 74° 30% - - 41° 75.1° 60.3° - - -
6/27 7:40am 168 0 G 1 71° 37% - - 43° 72.1° 60.3° - - -
6/27 7:30am 281 1 G 3 68° 42% - - 44° 71.6° 60.3° - - -
6/27 7:20am 269 1 G 2 68° 43% - - 44° 71.6° 60.3° - - -
6/27 7:10am 240 0 G 1 67° 46% - - 45° 71.6° 60.3° - - -
6/27 7:00am 214 0 G 1 66° 47% - - 45° 71.6° 60.3° - - -
6/27 6:50am 156 0 G 2 64° 50% - - 45° 71.6° 60.3° - - -
6/27 6:40am 350 0 G 1 64° 52% - - 45° 71.6° 60.3° - - -
6/27 6:30am 179 1 G 2 62° 52% - - 44° 71.6° 60.3° - - -
6/27 6:20am 59 1 G 3 62° 52% - - 44° 71.6° 60.3° - - -
6/27 6:10am 146 0 G 2 62° 55% - - 45° 71.6° 60.3° - - -
6/27 6:00am 95 1 G 2 61° 55% - - 45° 71.6° 60.3° - - -
6/27 5:50am 221 1 G 2 61° 53% - - 44° 71.6° 60.3° - - -
6/27 5:40am 71 1 G 2 61° 47% - - 41° 71.6° 60.6° - - -
6/27 5:30am 215 0 G 2 62° 46% - - 41° 71.6° 60.8° - - -
6/27 5:20am 127 1 G 2 61° 48% - - 42° 71.6° 60.8° - - -
6/27 5:10am 145 2 G 3 62° 46% - - 41° 71.6° 60.8° - - -
6/27 5:00am 76 2 G 3 62° 41% - - 39° 71.6° 61.8° - - -
6/27 4:50am 189 1 G 3 63° 40% - - 39° 71.6° 62.4° - - -
6/27 4:40am 105 1 G 3 65° 38% - - 38° 71.6° 62.9° - - -
6/27 4:30am 166 1 G 3 64° 43% - - 41° 71.6° 62.9° - - -
6/27 4:20am 152 1 G 2 63° 50% - - 44° 71.6° 62.9° - - -
6/27 4:10am 278 1 G 2 65° 43% - - 42° 71.6° 63.5° - - -
6/27 4:00am 42 0 G 2 64° 41% - - 40° 71.6° 63.9° - - -
6/27 3:50am 100 0 G 2 65° 47% - - 44° 71.6° 64.2° - - -
6/27 3:40am 136 0 G 2 65° 49% - - 45° 71.6° 64.2° - - -
6/27 3:30am 264 0 G 1 65° 47% - - 45° 71.6° 64.6° - - -
6/27 3:20am 357 1 G 2 65° 40% - - 40° 71.6° 64.6° - - -
6/27 3:10am 319 1 G 4 66° 38% - - 39° 71.6° 64.8° - - -
6/27 3:00am 287 0 G 1 66° 42% - - 42° 71.6° 64.9° - - -
6/27 2:50am 345 0 G 1 67° 42% - - 43° 71.6° 64.9° - - -
6/27 2:40am 291 0 G 1 67° 37% - - 40° 71.6° 64.9° - - -
6/27 2:30am 198 1 G 2 67° 39% - - 41° 71.6° 64.9° - - -
6/27 2:20am 313 0 G 1 68° 40% - - 43° 71.6° 64.9° - - -
6/27 2:10am 17 0 G 1 68° 37% - - 40° 71.6° 64.9° - - -
6/27 2:00am 40 1 G 3 67° 31% - - 36° 71.6° 64.9° - - -
6/27 1:50am 63 1 G 3 67° 33% - - 36° 71.6° 64.9° - - -
6/27 1:40am 359 1 G 3 65° 36% - - 37° 71.6° 64.9° - - -
6/27 1:30am 43 1 G 3 68° 35% - - 39° 71.6° 66.4° - - -
6/27 1:20am 140 0 G 2 69° 36% - - 41° 71.6° 68.7° - - -
6/27 1:10am 130 1 G 2 69° 40% - - 44° 71.6° 68.7° - - -
6/27 1:00am 221 1 G 2 69° 40% - - 44° 71.6° 68.9° - - -
6/27 12:50am 104 1 G 1 69° 39% - - 44° 71.6° 69° - - -
6/27 12:40am 318 0 G 1 71° 34% - - 41° 71.6° 69.6° - - -
6/27 12:30am 42 1 G 3 71° 30% - - 38° 71.3° 69.7° - - -
6/27 12:20am 63 2 G 4 71° 32% - - 39° 71.2° 69.7° - - -
6/27 12:10am 81 0 G 2 70° 36% - - 42° 70.2° 69.7° - - -
6/27 12:00am 136 0 G 1 70° 35% - - 41° 439.2° -27.8° - - -
6/26 11:50pm 207 1 G 2 70° 35% - - 41° 439.2° -27.8° - - -
6/26 11:40pm 71 2 G 5 70° 36% - - 41° 439.2° -27.8° - - -
6/26 11:30pm 59 5 G 8 69° 37% - - 42° 439.2° -27.8° - - -
6/26 11:20pm 56 5 G 8 71° 34% - - 41° 439.2° -27.8° - - -
6/26 11:10pm 77 6 G 8 72° 34% - - 42° 439.2° -27.8° - - -
6/26 11:00pm 95 3 G 8 73° 33% - - 43° 439.2° -27.8° - - -
6/26 10:50pm 72 3 G 5 74° 33% - - 43° 439.2° -27.8° - - -
6/26 10:40pm 126 1 G 2 73° 34% - - 43° 439.2° -27.8° - - -
6/26 10:30pm 69 2 G 4 74° 33% - - 43° 439.2° -27.8° - - -
6/26 10:20pm 203 0 G 0 75° 32% - - 44° 439.2° -27.8° - - -
6/26 10:10pm 200 1 G 1 75° 33% - - 44° 439.2° -27.8° - - -
6/26 10:00pm 166 0 G 0 75° 33% - - 44° 439.2° -27.8° - - -
6/26 9:50pm 197 1 G 2 76° 32% - - 44° 439.2° -27.8° - - -
6/26 9:40pm 95 0 G 2 77° 30% - - 43° 439.2° -27.8° - - -
6/26 9:30pm 55 2 G 3 78° 29% - - 43° 439.2° -27.8° - - -
6/26 9:20pm 86 1 G 2 80° 27% - - 44° 439.2° -27.8° - - -
6/26 9:10pm 120 1 G 2 81° 26% - - 43° 439.2° -27.8° - - -
6/26 9:00pm 128 1 G 2 81° 27% - - 45° 439.2° -27.8° - - -
6/26 8:50pm 8 0 G 2 83° 27% - - 45° 439.2° -27.8° - - -
6/26 8:40pm 86 1 G 1 83° 23% - - 42° 439.2° -27.8° - - -
6/26 8:30pm 85 1 G 2 84° 22% - - 41° 439.2° -27.8° - - -
6/26 8:20pm 108 1 G 2 85° 21% - - 40° 439.2° -27.8° - - -
6/26 8:10pm 105 1 G 2 86° 20% - - 41° 439.2° -27.8° - - -
6/26 8:00pm 265 1 G 4 87° 20% - - 41° 439.2° -27.8° - - -
6/26 7:50pm 241 4 G 6 89° 17% - - 38° 439.2° -27.8° - - -
6/26 7:40pm 233 4 G 9 90° 16% - - 37° 439.2° -27.8° - - -
6/26 7:30pm 233 5 G 8 91° 14% - - 36° 439.2° -27.8° - - -
6/26 7:20pm 232 5 G 9 92° 14% - - 36° 439.2° -27.8° - - -
6/26 7:10pm 235 5 G 9 90° 14% - - 34° 439.2° -27.8° - - -
6/26 7:00pm 245 5 G 9 78° 13% - - 23° 439.2° -27.8° - - -
6/26 6:50pm 237 6 G 10 85° 13% - - 28° 439.2° -27.8° - - -
6/26 6:40pm 243 7 G 10 53° 12% - - 439.2° -27.8° - - -
6/26 6:30pm 244 7 G 10 59° 12% - - 439.2° -27.8° - - -
6/26 6:20pm 243 7 G 10 47° 11% - - - 439.2° -27.8° - - -
6/26 6:10pm 245 6 G 10 34° 11% - - - 439.2° -27.8° - - -
6/26 6:00pm 249 6 G 10 87° 11% - - 26° 439.2° -27.8° - - -
6/26 5:50pm 243 7 G 12 45° 12% - - - 439.2° -27.8° - - -
6/26 5:40pm 250 7 G 12 -12° 12% - - - 439.2° -27.8° - - -
6/26 5:30pm 235 8 G 12 -10° 11% - - - 439.2° -27.8° - - -
6/26 5:20pm 241 8 G 16 -9° 10% - - - 439.2° -27.8° - - -
6/26 5:10pm 251 8 G 14 -6° 8% - - - 439.2° -27.8° - - -
6/26 5:00pm 273 7 G 14 -2° 9% - - - 439.2° -27.8° - - -
6/26 4:50pm 266 7 G 12 9% - - - 439.2° -27.8° - - -
6/26 4:40pm 272 8 G 14 10° 9% - - - 439.2° -27.8° - - -
6/26 4:30pm 0 8 G 14 ° % - - - 439.2° -27.8° - - -
6/26 4:20pm 0 10 G 15 ° % - - - 366.1° -27.8° - - -
6/26 4:10pm 0 8 G 14 ° % - - - 366.1° -27.8° - - -
6/26 4:00pm 0 8 G 16 ° % - - - 366.1° -27.8° - - -
6/26 3:50pm 0 8 G 13 ° % - - - 366.1° -27.8° - - -
6/26 3:40pm 0 8 G 13 ° % - - - 366.1° -27.8° - - -
6/26 3:30pm 0 10 G 16 ° % - - - 366.1° -27.8° - - -
6/26 3:20pm 0 9 G 15 ° % - - - 366.1° -27.8° - - -
6/26 3:10pm 0 9 G 14 ° % - - - 366.1° -27.8° - - -
6/26 3:00pm 0 9 G 14 ° % - - - 366.1° -27.8° - - -
6/26 2:50pm 0 7 G 14 ° % - - - 366.1° -27.8° - - -
6/26 2:40pm 242 8 G 14 72° 16% - - 23° 134.8° -27.8° - - -
6/26 2:30pm 244 9 G 14 92° 16% - - 39° 134.8° -27.8° - - -
6/26 2:20pm 243 7 G 15 28° 16% - - - 134.8° -27.8° - - -
6/26 2:10pm 240 8 G 14 20° 17% - - - 134.8° -27.8° - - -
6/26 2:00pm 238 8 G 14 38° 17% - - - 134.8° -27.8° - - -
6/26 1:50pm 250 8 G 12 95° 18% - - 45° 134.8° -27.8° - - -
6/26 1:40pm 250 7 G 12 92° 19% - - 44° 134.8° -27.8° - - -
6/26 1:30pm 244 7 G 11 97° 20% - - 49° 134.8° -27.8° - - -
6/26 1:20pm 240 6 G 12 67° 20% - - 24° 134.8° -27.8° - - -
6/26 1:10pm 236 7 G 14 65° 20% - - 22° 134.8° -27.8° - - -
6/26 1:00pm 246 6 G 13 80° 21% - - 36° 134.8° -27.8° - - -
6/26 12:50pm 275 6 G 10 91° 21% - - 46° 134.8° -27.8° - - -
6/26 12:40pm 268 6 G 11 93° 22% - - 49° 134.8° -27.8° - - -
6/26 12:30pm 254 5 G 10 85° 22% - - 42° 134.8° -27.8° - - -
6/26 12:20pm 237 7 G 12 90° 22% - - 46° 134.8° -27.8° - - -
6/26 12:10pm 241 6 G 9 89° 22% - - 45° 134.8° -27.8° - - -
6/26 12:00pm 204 7 G 12 80° 22% - - 37° 134.8° -27.8° - - -
6/26 11:50am 211 6 G 12 40° 21% - - 134.8° -27.8° - - -
6/26 11:40am 229 6 G 12 76° 21% - - 33° 134.8° -27.8° - - -
6/26 11:30am 229 5 G 9 73° 22% - - 31° 134.8° -27.8° - - -
6/26 11:20am 250 5 G 10 75° 24% - - 35° 134.8° -27.8° - - -
6/26 11:10am 264 7 G 13 55° 24% - - 19° 134.8° -27.8° - - -
6/26 11:00am 271 6 G 11 66° 24% - - 28° 134.8° -27.8° - - -
6/26 10:50am 270 6 G 9 29° 23% - - - 134.8° -27.8° - - -
6/26 10:40am 270 5 G 8 29° 24% - - - 134.8° -27.8° - - -
6/26 10:30am 284 5 G 9 71° 24% - - 32° 134.8° -27.8° - - -
6/26 10:20am 289 5 G 8 91° 26% - - 52° 134.8° -27.8° - - -
6/26 10:10am 297 5 G 9 93° 29% - - 55° 134.8° -27.8° - - -
6/26 10:00am 283 5 G 8 88° 25% - - 48° 134.8° -27.8° - - -
6/26 9:50am 277 4 G 7 85° 24% - - 44° 134.8° -27.8° - - -
6/26 9:40am 261 4 G 7 74° 18% - - 28° 134.8° -27.8° - - -
6/26 9:30am 259 4 G 6 35° % - - - 134.8° -27.8° - - -
6/26 9:20am 0 2 G 4 ° % - - - 134.8° -27.8° - - -
6/26 9:10am 0 2 G 4 ° % - - - 134.8° 54.4° - - -
6/26 9:00am 0 2 G 4 ° % - - - 134.8° 54.4° - - -
6/26 8:50am 295 2 G 3 68° 26% - - 32° 134.8° 54.4° - - -
6/26 8:40am 0 2 G 3 ° % - - - 134.8° 54.4° - - -
6/26 8:30am 297 0 G 2 66° 28% - - 32° 134.8° 54.4° - - -
6/26 8:20am 0 0 G 1 ° % - - - 134.8° 54.4° - - -
6/26 8:10am 293 0 G 1 ° % - - - 103° 58.5° - - -
6/26 8:00am 303 1 G 2 74° 46% - - 52° 74.9° 62.1° - - -
6/26 7:50am 288 1 G 2 74° 54% - - 56° 74.4° 62.1° - - -
6/26 7:40am 298 1 G 2 73° 53% - - 55° 73.4° 62.1° - - -
6/26 7:30am 91 0 G 1 72° 55% - - 56° 73.3° 62.1° - - -
6/26 7:20am 138 0 G 1 71° 62% - - 57° 72.2° 62.1° - - -
6/26 7:10am 193 0 G 2 69° 67% - - 57° 72.2° 62.1° - - -
6/26 7:00am 223 0 G 2 68° 69% - - 57° 72.2° 62.1° - - -
6/26 6:50am 334 0 G 1 66° 72% - - 57° 72.2° 62.1° - - -
6/26 6:40am 91 1 G 3 64° 72% - - 55° 72.2° 62.1° - - -
6/26 6:30am 49 1 G 3 64° 74% - - 55° 72.2° 62.1° - - -
6/26 6:20am 199 0 G 1 63° 75% - - 55° 72.2° 62.1° - - -
6/26 6:10am 117 0 G 2 63° 75% - - 55° 72.2° 62.1° - - -
6/26 6:00am 60 2 G 3 62° 75% - - 54° 72.2° 62.3° - - -